sensor_id;sensor_type;location;lat;lon;timestamp;temperature;humidity
5246;DHT22;54412;51.206;6.888;2023-01-04T00:00:31;8.80;99.90
5246;DHT22;54412;51.206;6.888;2023-01-04T00:02:56;8.80;99.90
5246;DHT22;54412;51.206;6.888;2023-01-04T00:05:22;8.80;99.90
5246;DHT22;54412;51.206;6.888;2023-01-04T00:07:47;8.80;99.90
5246;DHT22;54412;51.206;6.888;2023-01-04T00:10:13;8.80;99.90
5246;DHT22;54412;51.206;6.888;2023-01-04T00:12:39;8.90;99.90
5246;DHT22;54412;51.206;6.888;2023-01-04T00:15:05;8.80;99.90
5246;DHT22;54412;51.206;6.888;2023-01-04T00:17:31;8.90;99.90
5246;DHT22;54412;51.206;6.888;2023-01-04T00:19:57;8.80;99.90
5246;DHT22;54412;51.206;6.888;2023-01-04T00:22:23;9.00;99.90
5246;DHT22;54412;51.206;6.888;2023-01-04T00:24:49;9.00;99.90
5246;DHT22;54412;51.206;6.888;2023-01-04T00:27:15;9.10;99.90
5246;DHT22;54412;51.206;6.888;2023-01-04T00:29:41;9.20;99.90
5246;DHT22;54412;51.206;6.888;2023-01-04T00:32:06;9.20;99.90
5246;DHT22;54412;51.206;6.888;2023-01-04T00:34:32;9.10;99.90
5246;DHT22;54412;51.206;6.888;2023-01-04T00:36:58;9.10;99.90
5246;DHT22;54412;51.206;6.888;2023-01-04T00:39:23;9.10;99.90
5246;DHT22;54412;51.206;6.888;2023-01-04T00:41:51;9.20;99.90
5246;DHT22;54412;51.206;6.888;2023-01-04T00:44:18;9.20;99.90
5246;DHT22;54412;51.206;6.888;2023-01-04T00:46:46;9.20;99.90
5246;DHT22;54412;51.206;6.888;2023-01-04T00:49:12;9.20;99.90
5246;DHT22;54412;51.206;6.888;2023-01-04T00:51:40;9.20;99.90
5246;DHT22;54412;51.206;6.888;2023-01-04T00:54:10;9.10;99.90
5246;DHT22;54412;51.206;6.888;2023-01-04T00:56:37;9.10;99.90
5246;DHT22;54412;51.206;6.888;2023-01-04T00:59:03;9.10;99.90
5246;DHT22;54412;51.206;6.888;2023-01-04T01:01:31;9.10;99.90
5246;DHT22;54412;51.206;6.888;2023-01-04T01:04:00;9.10;99.90
5246;DHT22;54412;51.206;6.888;2023-01-04T01:06:28;9.00;99.90
5246;DHT22;54412;51.206;6.888;2023-01-04T01:08:54;8.90;99.90
5246;DHT22;54412;51.206;6.888;2023-01-04T01:11:20;9.00;99.90
5246;DHT22;54412;51.206;6.888;2023-01-04T01:13:47;9.00;99.90
5246;DHT22;54412;51.206;6.888;2023-01-04T01:16:16;9.00;99.90
5246;DHT22;54412;51.206;6.888;2023-01-04T01:18:44;9.00;99.90
5246;DHT22;54412;51.206;6.888;2023-01-04T01:21:16;8.90;99.90
5246;DHT22;54412;51.206;6.888;2023-01-04T01:23:44;8.90;99.90
5246;DHT22;54412;51.206;6.888;2023-01-04T01:26:12;8.90;99.90
5246;DHT22;54412;51.206;6.888;2023-01-04T01:28:40;8.90;99.90
5246;DHT22;54412;51.206;6.888;2023-01-04T01:31:12;8.80;99.90
5246;DHT22;54412;51.206;6.888;2023-01-04T01:33:41;8.90;99.90
5246;DHT22;54412;51.206;6.888;2023-01-04T01:36:09;8.70;99.90
5246;DHT22;54412;51.206;6.888;2023-01-04T01:38:36;8.70;99.90
5246;DHT22;54412;51.206;6.888;2023-01-04T01:41:04;8.80;99.90
5246;DHT22;54412;51.206;6.888;2023-01-04T01:43:56;8.70;99.90
5246;DHT22;54412;51.206;6.888;2023-01-04T01:46:37;8.60;99.90
5246;DHT22;54412;51.206;6.888;2023-01-04T01:49:17;8.60;99.90
5246;DHT22;54412;51.206;6.888;2023-01-04T01:51:55;8.80;99.90
5246;DHT22;54412;51.206;6.888;2023-01-04T01:54:32;8.80;99.90
5246;DHT22;54412;51.206;6.888;2023-01-04T01:57:03;8.80;99.90
5246;DHT22;54412;51.206;6.888;2023-01-04T01:59:31;8.80;99.90
5246;DHT22;54412;51.206;6.888;2023-01-04T02:02:00;8.60;99.90
5246;DHT22;54412;51.206;6.888;2023-01-04T02:04:26;8.60;99.90
5246;DHT22;54412;51.206;6.888;2023-01-04T02:06:54;8.60;99.90
5246;DHT22;54412;51.206;6.888;2023-01-04T02:09:22;8.60;99.90
5246;DHT22;54412;51.206;6.888;2023-01-04T02:11:48;8.50;99.90
5246;DHT22;54412;51.206;6.888;2023-01-04T02:14:16;8.60;99.90
5246;DHT22;54412;51.206;6.888;2023-01-04T02:19:56;8.50;99.90
5246;DHT22;54412;51.206;6.888;2023-01-04T02:25:58;8.50;99.90
5246;DHT22;54412;51.206;6.888;2023-01-04T02:29:04;8.70;99.90
5246;DHT22;54412;51.206;6.888;2023-01-04T02:35:00;8.50;99.90
5246;DHT22;54412;51.206;6.888;2023-01-04T02:37:46;8.60;99.90
5246;DHT22;54412;51.206;6.888;2023-01-04T02:43:25;8.50;99.90
5246;DHT22;54412;51.206;6.888;2023-01-04T02:46:18;8.40;99.90
5246;DHT22;54412;51.206;6.888;2023-01-04T02:48:50;8.50;99.90
5246;DHT22;54412;51.206;6.888;2023-01-04T02:51:35;8.50;99.90
5246;DHT22;54412;51.206;6.888;2023-01-04T02:54:05;8.60;99.90
5246;DHT22;54412;51.206;6.888;2023-01-04T03:00:14;8.70;99.90
5246;DHT22;54412;51.206;6.888;2023-01-04T03:02:56;8.70;99.90
5246;DHT22;54412;51.206;6.888;2023-01-04T03:06:15;8.60;99.90
5246;DHT22;54412;51.206;6.888;2023-01-04T03:09:07;8.70;99.90
5246;DHT22;54412;51.206;6.888;2023-01-04T03:11:52;8.70;99.90
5246;DHT22;54412;51.206;6.888;2023-01-04T03:14:54;8.80;99.90
5246;DHT22;54412;51.206;6.888;2023-01-04T03:17:54;8.80;99.90
5246;DHT22;54412;51.206;6.888;2023-01-04T03:20:27;8.80;99.90
5246;DHT22;54412;51.206;6.888;2023-01-04T03:22:58;8.80;99.90
5246;DHT22;54412;51.206;6.888;2023-01-04T03:25:53;9.00;99.90
5246;DHT22;54412;51.206;6.888;2023-01-04T03:28:43;8.90;99.90
5246;DHT22;54412;51.206;6.888;2023-01-04T03:31:41;8.80;99.90
5246;DHT22;54412;51.206;6.888;2023-01-04T03:34:30;8.90;99.90
5246;DHT22;54412;51.206;6.888;2023-01-04T03:37:23;9.00;99.90
5246;DHT22;54412;51.206;6.888;2023-01-04T03:46:11;9.00;99.90
5246;DHT22;54412;51.206;6.888;2023-01-04T03:49:28;9.10;99.90
5246;DHT22;54412;51.206;6.888;2023-01-04T03:52:02;9.00;99.90
5246;DHT22;54412;51.206;6.888;2023-01-04T03:54:33;9.10;99.90
5246;DHT22;54412;51.206;6.888;2023-01-04T03:57:03;9.20;99.90
5246;DHT22;54412;51.206;6.888;2023-01-04T03:59:30;9.20;99.90
5246;DHT22;54412;51.206;6.888;2023-01-04T04:02:01;9.20;99.90
5246;DHT22;54412;51.206;6.888;2023-01-04T04:04:27;9.20;99.90
5246;DHT22;54412;51.206;6.888;2023-01-04T04:07:11;9.30;99.90
5246;DHT22;54412;51.206;6.888;2023-01-04T04:09:55;9.30;99.90
5246;DHT22;54412;51.206;6.888;2023-01-04T04:12:21;9.40;99.90
5246;DHT22;54412;51.206;6.888;2023-01-04T04:14:46;9.50;99.90
5246;DHT22;54412;51.206;6.888;2023-01-04T04:17:12;9.50;99.90
5246;DHT22;54412;51.206;6.888;2023-01-04T04:19:38;9.70;99.90
5246;DHT22;54412;51.206;6.888;2023-01-04T04:22:03;9.70;99.90
5246;DHT22;54412;51.206;6.888;2023-01-04T04:24:29;9.70;99.90
5246;DHT22;54412;51.206;6.888;2023-01-04T04:26:55;9.70;99.90
5246;DHT22;54412;51.206;6.888;2023-01-04T04:29:22;9.80;99.90
5246;DHT22;54412;51.206;6.888;2023-01-04T04:31:48;9.80;99.90
5246;DHT22;54412;51.206;6.888;2023-01-04T04:34:14;9.80;99.90
5246;DHT22;54412;51.206;6.888;2023-01-04T04:36:40;9.90;99.90
5246;DHT22;54412;51.206;6.888;2023-01-04T04:39:06;9.90;99.90
5246;DHT22;54412;51.206;6.888;2023-01-04T04:41:31;9.80;99.90
5246;DHT22;54412;51.206;6.888;2023-01-04T04:44:05;10.00;99.90
5246;DHT22;54412;51.206;6.888;2023-01-04T04:46:42;9.90;99.90
5246;DHT22;54412;51.206;6.888;2023-01-04T04:49:09;9.90;99.90
5246;DHT22;54412;51.206;6.888;2023-01-04T04:51:36;9.90;99.90
5246;DHT22;54412;51.206;6.888;2023-01-04T04:54:03;10.00;99.90
5246;DHT22;54412;51.206;6.888;2023-01-04T04:56:29;9.90;99.90
5246;DHT22;54412;51.206;6.888;2023-01-04T04:58:55;10.00;99.90
5246;DHT22;54412;51.206;6.888;2023-01-04T05:01:21;10.00;99.90
5246;DHT22;54412;51.206;6.888;2023-01-04T05:03:47;10.00;99.90
5246;DHT22;54412;51.206;6.888;2023-01-04T05:06:12;10.00;99.90
5246;DHT22;54412;51.206;6.888;2023-01-04T05:08:38;10.10;99.90
5246;DHT22;54412;51.206;6.888;2023-01-04T05:11:09;10.00;99.90
5246;DHT22;54412;51.206;6.888;2023-01-04T05:13:36;10.10;99.90
5246;DHT22;54412;51.206;6.888;2023-01-04T05:16:03;10.10;99.90
5246;DHT22;54412;51.206;6.888;2023-01-04T05:18:30;10.00;99.90
5246;DHT22;54412;51.206;6.888;2023-01-04T05:20:56;10.10;99.90
5246;DHT22;54412;51.206;6.888;2023-01-04T05:23:22;10.10;99.90
5246;DHT22;54412;51.206;6.888;2023-01-04T05:25:59;10.30;99.90
5246;DHT22;54412;51.206;6.888;2023-01-04T05:28:26;10.20;99.90
5246;DHT22;54412;51.206;6.888;2023-01-04T05:30:52;10.30;99.90
5246;DHT22;54412;51.206;6.888;2023-01-04T05:33:21;10.20;99.90
5246;DHT22;54412;51.206;6.888;2023-01-04T05:35:48;10.20;99.90
5246;DHT22;54412;51.206;6.888;2023-01-04T05:38:15;10.20;99.90
5246;DHT22;54412;51.206;6.888;2023-01-04T05:40:41;10.30;99.90
5246;DHT22;54412;51.206;6.888;2023-01-04T05:43:07;10.30;99.90
5246;DHT22;54412;51.206;6.888;2023-01-04T05:45:33;10.30;99.90
5246;DHT22;54412;51.206;6.888;2023-01-04T05:47:59;10.30;99.90
5246;DHT22;54412;51.206;6.888;2023-01-04T05:50:24;10.40;99.90
5246;DHT22;54412;51.206;6.888;2023-01-04T05:52:51;10.30;99.90
5246;DHT22;54412;51.206;6.888;2023-01-04T05:55:17;10.40;99.90
5246;DHT22;54412;51.206;6.888;2023-01-04T05:57:43;10.40;99.90
5246;DHT22;54412;51.206;6.888;2023-01-04T06:00:11;10.40;99.90
5246;DHT22;54412;51.206;6.888;2023-01-04T06:02:37;10.50;99.90
5246;DHT22;54412;51.206;6.888;2023-01-04T06:05:04;10.50;99.90
5246;DHT22;54412;51.206;6.888;2023-01-04T06:07:30;10.60;99.90
5246;DHT22;54412;51.206;6.888;2023-01-04T06:09:56;10.60;99.90
5246;DHT22;54412;51.206;6.888;2023-01-04T06:12:22;10.60;99.90
5246;DHT22;54412;51.206;6.888;2023-01-04T06:14:47;10.70;99.90
5246;DHT22;54412;51.206;6.888;2023-01-04T06:17:13;10.70;99.90
5246;DHT22;54412;51.206;6.888;2023-01-04T06:19:39;10.70;99.90
5246;DHT22;54412;51.206;6.888;2023-01-04T06:22:05;10.70;99.90
5246;DHT22;54412;51.206;6.888;2023-01-04T06:24:31;10.80;99.90
5246;DHT22;54412;51.206;6.888;2023-01-04T06:26:58;10.80;99.90
5246;DHT22;54412;51.206;6.888;2023-01-04T06:29:25;10.80;99.90
5246;DHT22;54412;51.206;6.888;2023-01-04T06:31:50;10.90;99.90
5246;DHT22;54412;51.206;6.888;2023-01-04T06:34:16;10.90;99.90
5246;DHT22;54412;51.206;6.888;2023-01-04T06:36:42;11.00;99.90
5246;DHT22;54412;51.206;6.888;2023-01-04T06:39:07;11.00;99.90
5246;DHT22;54412;51.206;6.888;2023-01-04T06:41:34;11.10;99.90
5246;DHT22;54412;51.206;6.888;2023-01-04T06:44:00;11.10;99.90
5246;DHT22;54412;51.206;6.888;2023-01-04T06:46:26;11.10;99.90
5246;DHT22;54412;51.206;6.888;2023-01-04T06:48:52;11.10;99.90
5246;DHT22;54412;51.206;6.888;2023-01-04T06:51:21;11.00;99.90
5246;DHT22;54412;51.206;6.888;2023-01-04T06:53:47;11.00;99.90
5246;DHT22;54412;51.206;6.888;2023-01-04T06:56:13;11.00;99.90
5246;DHT22;54412;51.206;6.888;2023-01-04T06:58:39;11.00;99.90
5246;DHT22;54412;51.206;6.888;2023-01-04T07:01:06;11.00;99.90
5246;DHT22;54412;51.206;6.888;2023-01-04T07:03:32;11.00;99.90
5246;DHT22;54412;51.206;6.888;2023-01-04T07:05:58;11.00;99.90
5246;DHT22;54412;51.206;6.888;2023-01-04T07:08:24;10.90;99.90
5246;DHT22;54412;51.206;6.888;2023-01-04T07:10:50;11.00;99.90
5246;DHT22;54412;51.206;6.888;2023-01-04T07:13:16;11.00;99.90
5246;DHT22;54412;51.206;6.888;2023-01-04T07:15:42;11.00;99.90
5246;DHT22;54412;51.206;6.888;2023-01-04T07:18:10;11.10;99.90
5246;DHT22;54412;51.206;6.888;2023-01-04T07:20:37;11.10;99.90
5246;DHT22;54412;51.206;6.888;2023-01-04T07:23:04;11.20;99.90
5246;DHT22;54412;51.206;6.888;2023-01-04T07:25:30;11.30;99.90
5246;DHT22;54412;51.206;6.888;2023-01-04T07:27:56;11.30;99.90
5246;DHT22;54412;51.206;6.888;2023-01-04T07:30:22;11.30;99.90
5246;DHT22;54412;51.206;6.888;2023-01-04T07:32:50;11.30;99.90
5246;DHT22;54412;51.206;6.888;2023-01-04T07:35:18;11.40;99.90
5246;DHT22;54412;51.206;6.888;2023-01-04T07:37:44;11.40;99.90
5246;DHT22;54412;51.206;6.888;2023-01-04T07:40:11;11.50;99.90
5246;DHT22;54412;51.206;6.888;2023-01-04T07:42:37;11.50;99.90
5246;DHT22;54412;51.206;6.888;2023-01-04T07:45:04;11.40;99.90
5246;DHT22;54412;51.206;6.888;2023-01-04T07:47:30;11.50;99.90
5246;DHT22;54412;51.206;6.888;2023-01-04T07:49:56;11.50;99.90
5246;DHT22;54412;51.206;6.888;2023-01-04T07:52:23;11.50;99.90
5246;DHT22;54412;51.206;6.888;2023-01-04T07:54:49;11.50;99.90
5246;DHT22;54412;51.206;6.888;2023-01-04T07:57:14;11.50;99.90
5246;DHT22;54412;51.206;6.888;2023-01-04T07:59:40;11.50;99.90
5246;DHT22;54412;51.206;6.888;2023-01-04T08:02:08;11.50;99.90
5246;DHT22;54412;51.206;6.888;2023-01-04T08:04:35;11.60;99.90
5246;DHT22;54412;51.206;6.888;2023-01-04T08:07:01;11.60;99.90
5246;DHT22;54412;51.206;6.888;2023-01-04T08:09:27;11.50;99.90
5246;DHT22;54412;51.206;6.888;2023-01-04T08:11:52;11.50;99.90
5246;DHT22;54412;51.206;6.888;2023-01-04T08:14:18;11.50;99.90
5246;DHT22;54412;51.206;6.888;2023-01-04T08:16:44;11.50;99.90
5246;DHT22;54412;51.206;6.888;2023-01-04T08:19:17;11.60;99.90
5246;DHT22;54412;51.206;6.888;2023-01-04T08:21:45;11.60;99.90
5246;DHT22;54412;51.206;6.888;2023-01-04T08:24:14;11.60;99.90
5246;DHT22;54412;51.206;6.888;2023-01-04T08:26:42;11.60;99.90
5246;DHT22;54412;51.206;6.888;2023-01-04T08:29:10;11.60;99.90
5246;DHT22;54412;51.206;6.888;2023-01-04T08:31:37;11.60;99.90
5246;DHT22;54412;51.206;6.888;2023-01-04T08:34:06;11.60;99.90
5246;DHT22;54412;51.206;6.888;2023-01-04T08:36:34;11.70;99.90
5246;DHT22;54412;51.206;6.888;2023-01-04T08:39:11;11.70;99.90
5246;DHT22;54412;51.206;6.888;2023-01-04T08:41:37;11.70;99.90
5246;DHT22;54412;51.206;6.888;2023-01-04T08:44:22;11.70;99.90
5246;DHT22;54412;51.206;6.888;2023-01-04T08:46:51;11.70;99.90
5246;DHT22;54412;51.206;6.888;2023-01-04T08:49:17;11.60;99.90
5246;DHT22;54412;51.206;6.888;2023-01-04T08:51:44;11.60;99.90
5246;DHT22;54412;51.206;6.888;2023-01-04T08:54:11;11.60;99.90
5246;DHT22;54412;51.206;6.888;2023-01-04T08:56:37;11.70;99.90
5246;DHT22;54412;51.206;6.888;2023-01-04T08:59:03;11.70;99.90
5246;DHT22;54412;51.206;6.888;2023-01-04T09:01:31;11.70;99.90
5246;DHT22;54412;51.206;6.888;2023-01-04T09:03:58;11.80;99.90
5246;DHT22;54412;51.206;6.888;2023-01-04T09:06:23;11.70;99.90
5246;DHT22;54412;51.206;6.888;2023-01-04T09:08:49;11.70;99.90
5246;DHT22;54412;51.206;6.888;2023-01-04T09:11:18;11.80;99.90
5246;DHT22;54412;51.206;6.888;2023-01-04T09:13:46;11.80;99.90
5246;DHT22;54412;51.206;6.888;2023-01-04T09:16:14;11.80;99.90
5246;DHT22;54412;51.206;6.888;2023-01-04T09:18:43;11.80;99.90
5246;DHT22;54412;51.206;6.888;2023-01-04T09:21:12;11.90;99.90
5246;DHT22;54412;51.206;6.888;2023-01-04T09:23:40;11.80;99.90
5246;DHT22;54412;51.206;6.888;2023-01-04T09:26:15;11.90;99.90
5246;DHT22;54412;51.206;6.888;2023-01-04T09:28:43;11.90;99.90
5246;DHT22;54412;51.206;6.888;2023-01-04T09:31:14;12.00;99.90
5246;DHT22;54412;51.206;6.888;2023-01-04T09:33:43;12.10;99.90
5246;DHT22;54412;51.206;6.888;2023-01-04T09:36:12;12.10;99.90
5246;DHT22;54412;51.206;6.888;2023-01-04T09:38:39;12.10;99.90
5246;DHT22;54412;51.206;6.888;2023-01-04T09:43:50;12.10;99.90
5246;DHT22;54412;51.206;6.888;2023-01-04T09:52:33;12.20;99.90
5246;DHT22;54412;51.206;6.888;2023-01-04T09:55:13;12.20;99.90
5246;DHT22;54412;51.206;6.888;2023-01-04T09:57:57;12.20;99.90
5246;DHT22;54412;51.206;6.888;2023-01-04T10:00:31;12.20;99.90
5246;DHT22;54412;51.206;6.888;2023-01-04T10:03:17;12.20;99.90
5246;DHT22;54412;51.206;6.888;2023-01-04T10:05:50;12.20;99.90
5246;DHT22;54412;51.206;6.888;2023-01-04T10:08:18;12.20;99.90
5246;DHT22;54412;51.206;6.888;2023-01-04T10:13:56;12.10;99.90
5246;DHT22;54412;51.206;6.888;2023-01-04T10:22:23;12.00;99.90
5246;DHT22;54412;51.206;6.888;2023-01-04T10:25:17;12.10;99.90
5246;DHT22;54412;51.206;6.888;2023-01-04T10:28:03;12.20;99.90
5246;DHT22;54412;51.206;6.888;2023-01-04T10:31:14;12.10;99.90
5246;DHT22;54412;51.206;6.888;2023-01-04T10:34:36;12.00;99.90
5246;DHT22;54412;51.206;6.888;2023-01-04T10:36:49;11.90;99.90
5246;DHT22;54412;51.206;6.888;2023-01-04T10:39:21;11.80;99.90
5246;DHT22;54412;51.206;6.888;2023-01-04T10:41:52;11.80;99.90
5246;DHT22;54412;51.206;6.888;2023-01-04T10:47:09;11.80;99.90
5246;DHT22;54412;51.206;6.888;2023-01-04T10:49:45;11.80;99.90
5246;DHT22;54412;51.206;6.888;2023-01-04T10:52:42;11.80;99.90
5246;DHT22;54412;51.206;6.888;2023-01-04T10:56:30;11.80;99.90
5246;DHT22;54412;51.206;6.888;2023-01-04T10:58:51;11.80;99.90
5246;DHT22;54412;51.206;6.888;2023-01-04T11:01:32;11.80;99.90
5246;DHT22;54412;51.206;6.888;2023-01-04T11:04:09;11.80;99.90
5246;DHT22;54412;51.206;6.888;2023-01-04T11:07:01;11.80;99.90
5246;DHT22;54412;51.206;6.888;2023-01-04T11:12:16;11.90;99.90
5246;DHT22;54412;51.206;6.888;2023-01-04T11:14:43;11.90;99.90
5246;DHT22;54412;51.206;6.888;2023-01-04T11:17:10;11.90;99.90
5246;DHT22;54412;51.206;6.888;2023-01-04T11:19:38;11.90;99.90
5246;DHT22;54412;51.206;6.888;2023-01-04T11:25:16;11.90;99.90
5246;DHT22;54412;51.206;6.888;2023-01-04T11:27:48;11.90;99.90
5246;DHT22;54412;51.206;6.888;2023-01-04T11:30:21;12.00;99.90
5246;DHT22;54412;51.206;6.888;2023-01-04T11:33:11;11.90;99.90
5246;DHT22;54412;51.206;6.888;2023-01-04T11:35:50;12.00;99.90
5246;DHT22;54412;51.206;6.888;2023-01-04T11:38:18;12.00;99.90
5246;DHT22;54412;51.206;6.888;2023-01-04T11:43:29;12.00;99.90
5246;DHT22;54412;51.206;6.888;2023-01-04T11:48:46;12.10;99.90
5246;DHT22;54412;51.206;6.888;2023-01-04T11:54:02;12.10;99.90
5246;DHT22;54412;51.206;6.888;2023-01-04T11:57:02;12.10;99.90
5246;DHT22;54412;51.206;6.888;2023-01-04T11:59:41;12.10;99.90
5246;DHT22;54412;51.206;6.888;2023-01-04T12:02:18;12.10;99.90
5246;DHT22;54412;51.206;6.888;2023-01-04T12:04:50;12.20;99.90
5246;DHT22;54412;51.206;6.888;2023-01-04T12:07:29;12.10;99.90
5246;DHT22;54412;51.206;6.888;2023-01-04T12:09:59;12.20;99.90
5246;DHT22;54412;51.206;6.888;2023-01-04T12:12:31;12.20;99.90
5246;DHT22;54412;51.206;6.888;2023-01-04T12:15:02;12.20;99.90
5246;DHT22;54412;51.206;6.888;2023-01-04T12:18:13;12.30;99.90
5246;DHT22;54412;51.206;6.888;2023-01-04T12:20:43;12.40;99.90
5246;DHT22;54412;51.206;6.888;2023-01-04T12:23:11;12.40;99.90
5246;DHT22;54412;51.206;6.888;2023-01-04T12:25:40;12.40;99.90
5246;DHT22;54412;51.206;6.888;2023-01-04T12:33:54;12.30;99.90
5246;DHT22;54412;51.206;6.888;2023-01-04T12:45:09;12.20;99.90
5246;DHT22;54412;51.206;6.888;2023-01-04T12:50:05;12.10;99.90
5246;DHT22;54412;51.206;6.888;2023-01-04T12:57:59;12.20;99.90
5246;DHT22;54412;51.206;6.888;2023-01-04T13:08:30;12.20;99.90
5246;DHT22;54412;51.206;6.888;2023-01-04T13:10:58;12.20;99.90
5246;DHT22;54412;51.206;6.888;2023-01-04T13:13:40;12.30;99.90
5246;DHT22;54412;51.206;6.888;2023-01-04T13:18:58;12.30;99.90
5246;DHT22;54412;51.206;6.888;2023-01-04T13:21:38;12.30;99.90
5246;DHT22;54412;51.206;6.888;2023-01-04T13:27:04;12.40;99.90
5246;DHT22;54412;51.206;6.888;2023-01-04T13:29:34;12.40;99.90
5246;DHT22;54412;51.206;6.888;2023-01-04T13:32:04;12.40;99.90
5246;DHT22;54412;51.206;6.888;2023-01-04T13:34:44;12.40;99.90
5246;DHT22;54412;51.206;6.888;2023-01-04T13:42:45;12.40;99.90
5246;DHT22;54412;51.206;6.888;2023-01-04T13:48:16;12.40;99.90
5246;DHT22;54412;51.206;6.888;2023-01-04T13:51:13;12.40;99.90
5246;DHT22;54412;51.206;6.888;2023-01-04T13:53:39;12.40;99.90
5246;DHT22;54412;51.206;6.888;2023-01-04T13:56:22;12.40;99.90
5246;DHT22;54412;51.206;6.888;2023-01-04T13:58:52;12.40;99.90
5246;DHT22;54412;51.206;6.888;2023-01-04T14:01:22;12.40;99.90
5246;DHT22;54412;51.206;6.888;2023-01-04T14:06:32;12.40;99.90
5246;DHT22;54412;51.206;6.888;2023-01-04T14:22:54;12.50;99.90
5246;DHT22;54412;51.206;6.888;2023-01-04T14:41:35;12.70;99.90
5246;DHT22;54412;51.206;6.888;2023-01-04T14:44:14;12.70;99.90
5246;DHT22;54412;51.206;6.888;2023-01-04T14:46:49;12.70;99.90
5246;DHT22;54412;51.206;6.888;2023-01-04T14:49:17;12.80;99.90
5246;DHT22;54412;51.206;6.888;2023-01-04T14:54:15;12.80;99.90
5246;DHT22;54412;51.206;6.888;2023-01-04T14:56:42;12.80;99.90
5246;DHT22;54412;51.206;6.888;2023-01-04T14:59:08;12.70;99.90
5246;DHT22;54412;51.206;6.888;2023-01-04T15:01:34;12.70;99.90
5246;DHT22;54412;51.206;6.888;2023-01-04T15:04:04;12.70;99.90
5246;DHT22;54412;51.206;6.888;2023-01-04T15:06:31;12.70;99.90
5246;DHT22;54412;51.206;6.888;2023-01-04T15:08:58;12.60;99.90
5246;DHT22;54412;51.206;6.888;2023-01-04T15:11:24;12.60;99.90
5246;DHT22;54412;51.206;6.888;2023-01-04T15:13:49;12.60;99.90
5246;DHT22;54412;51.206;6.888;2023-01-04T15:16:16;12.50;99.90
5246;DHT22;54412;51.206;6.888;2023-01-04T15:18:44;12.50;99.90
5246;DHT22;54412;51.206;6.888;2023-01-04T15:21:11;12.60;99.90
5246;DHT22;54412;51.206;6.888;2023-01-04T15:23:38;12.60;99.90
5246;DHT22;54412;51.206;6.888;2023-01-04T15:26:09;12.60;99.90
5246;DHT22;54412;51.206;6.888;2023-01-04T15:28:36;12.60;99.90
5246;DHT22;54412;51.206;6.888;2023-01-04T15:31:10;12.70;99.90
5246;DHT22;54412;51.206;6.888;2023-01-04T15:33:37;12.60;99.90
5246;DHT22;54412;51.206;6.888;2023-01-04T15:36:12;12.70;99.90
5246;DHT22;54412;51.206;6.888;2023-01-04T15:38:40;12.80;99.90
5246;DHT22;54412;51.206;6.888;2023-01-04T15:41:10;12.80;99.90
5246;DHT22;54412;51.206;6.888;2023-01-04T15:43:57;12.80;99.90
5246;DHT22;54412;51.206;6.888;2023-01-04T15:46:23;12.80;99.90
5246;DHT22;54412;51.206;6.888;2023-01-04T15:48:49;12.80;99.90
5246;DHT22;54412;51.206;6.888;2023-01-04T15:51:14;12.80;99.90
5246;DHT22;54412;51.206;6.888;2023-01-04T15:53:40;12.80;99.90
5246;DHT22;54412;51.206;6.888;2023-01-04T15:56:07;12.80;99.90
5246;DHT22;54412;51.206;6.888;2023-01-04T15:58:35;12.80;99.90
5246;DHT22;54412;51.206;6.888;2023-01-04T16:01:13;12.80;99.90
5246;DHT22;54412;51.206;6.888;2023-01-04T16:03:39;12.80;99.90
5246;DHT22;54412;51.206;6.888;2023-01-04T16:06:08;12.80;99.90
5246;DHT22;54412;51.206;6.888;2023-01-04T16:08:35;12.80;99.90
5246;DHT22;54412;51.206;6.888;2023-01-04T16:13:39;12.80;99.90
5246;DHT22;54412;51.206;6.888;2023-01-04T16:16:05;12.80;99.90
5246;DHT22;54412;51.206;6.888;2023-01-04T16:18:32;12.90;99.90
5246;DHT22;54412;51.206;6.888;2023-01-04T16:20:59;12.80;99.90
5246;DHT22;54412;51.206;6.888;2023-01-04T16:23:25;12.80;99.90
5246;DHT22;54412;51.206;6.888;2023-01-04T16:28:30;12.60;99.90
5246;DHT22;54412;51.206;6.888;2023-01-04T16:30:57;12.50;99.90
5246;DHT22;54412;51.206;6.888;2023-01-04T16:33:22;12.40;99.90
5246;DHT22;54412;51.206;6.888;2023-01-04T16:35:48;12.30;99.90
5246;DHT22;54412;51.206;6.888;2023-01-04T16:38:14;12.30;99.90
5246;DHT22;54412;51.206;6.888;2023-01-04T16:40:39;12.20;99.90
5246;DHT22;54412;51.206;6.888;2023-01-04T16:43:05;12.30;99.90
5246;DHT22;54412;51.206;6.888;2023-01-04T16:45:31;12.20;99.90
5246;DHT22;54412;51.206;6.888;2023-01-04T16:47:58;12.20;99.90
5246;DHT22;54412;51.206;6.888;2023-01-04T16:50:23;12.20;99.90
5246;DHT22;54412;51.206;6.888;2023-01-04T16:52:49;12.30;99.90
5246;DHT22;54412;51.206;6.888;2023-01-04T16:55:15;12.30;99.90
5246;DHT22;54412;51.206;6.888;2023-01-04T16:57:40;12.30;99.90
5246;DHT22;54412;51.206;6.888;2023-01-04T17:00:07;12.30;99.90
5246;DHT22;54412;51.206;6.888;2023-01-04T17:02:33;12.40;99.90
5246;DHT22;54412;51.206;6.888;2023-01-04T17:04:58;12.30;99.90
5246;DHT22;54412;51.206;6.888;2023-01-04T17:07:25;12.40;99.90
5246;DHT22;54412;51.206;6.888;2023-01-04T17:09:56;12.40;99.90
5246;DHT22;54412;51.206;6.888;2023-01-04T17:12:23;12.40;99.90
5246;DHT22;54412;51.206;6.888;2023-01-04T17:14:49;12.50;99.90
5246;DHT22;54412;51.206;6.888;2023-01-04T17:17:15;12.50;99.90
5246;DHT22;54412;51.206;6.888;2023-01-04T17:19:41;12.40;99.90
5246;DHT22;54412;51.206;6.888;2023-01-04T17:22:06;12.50;99.90
5246;DHT22;54412;51.206;6.888;2023-01-04T17:24:32;12.50;99.90
5246;DHT22;54412;51.206;6.888;2023-01-04T17:26:58;12.50;99.90
5246;DHT22;54412;51.206;6.888;2023-01-04T17:29:23;12.60;99.90
5246;DHT22;54412;51.206;6.888;2023-01-04T17:31:49;12.50;99.90
5246;DHT22;54412;51.206;6.888;2023-01-04T17:34:15;12.50;99.90
5246;DHT22;54412;51.206;6.888;2023-01-04T17:36:44;12.50;99.90
5246;DHT22;54412;51.206;6.888;2023-01-04T17:39:10;12.50;99.90
5246;DHT22;54412;51.206;6.888;2023-01-04T17:41:35;12.50;99.90
5246;DHT22;54412;51.206;6.888;2023-01-04T17:44:03;12.50;99.90
5246;DHT22;54412;51.206;6.888;2023-01-04T17:46:32;12.50;99.90
5246;DHT22;54412;51.206;6.888;2023-01-04T17:49:03;12.50;99.90
5246;DHT22;54412;51.206;6.888;2023-01-04T17:51:31;12.50;99.90
5246;DHT22;54412;51.206;6.888;2023-01-04T17:54:00;12.50;99.90
5246;DHT22;54412;51.206;6.888;2023-01-04T17:56:28;12.50;99.90
5246;DHT22;54412;51.206;6.888;2023-01-04T17:58:57;12.50;99.90
5246;DHT22;54412;51.206;6.888;2023-01-04T18:01:24;12.50;99.90
5246;DHT22;54412;51.206;6.888;2023-01-04T18:03:53;12.40;99.90
5246;DHT22;54412;51.206;6.888;2023-01-04T18:06:23;12.50;99.90
5246;DHT22;54412;51.206;6.888;2023-01-04T18:08:54;12.50;99.90
5246;DHT22;54412;51.206;6.888;2023-01-04T18:11:21;12.50;99.90
5246;DHT22;54412;51.206;6.888;2023-01-04T18:13:48;12.50;99.90
5246;DHT22;54412;51.206;6.888;2023-01-04T18:16:16;12.50;99.90
5246;DHT22;54412;51.206;6.888;2023-01-04T18:18:44;12.50;99.90
5246;DHT22;54412;51.206;6.888;2023-01-04T18:21:16;12.50;99.90
5246;DHT22;54412;51.206;6.888;2023-01-04T18:23:44;12.50;99.90
5246;DHT22;54412;51.206;6.888;2023-01-04T18:26:12;12.50;99.90
5246;DHT22;54412;51.206;6.888;2023-01-04T18:28:38;12.50;99.90
5246;DHT22;54412;51.206;6.888;2023-01-04T18:31:12;12.50;99.90
5246;DHT22;54412;51.206;6.888;2023-01-04T18:33:40;12.50;99.90